createdAt,value
2024-03-12T00:02:49.624Z,85.48
2024-03-12T00:08:54.460Z,85.90
2024-03-12T00:15:20.011Z,86.19
2024-03-12T00:21:46.818Z,86.05
2024-03-12T00:28:11.401Z,86.35
2024-03-12T00:34:36.958Z,86.42
2024-03-12T00:40:46.523Z,86.96
2024-03-12T00:46:14.913Z,87.13
2024-03-12T00:51:31.541Z,86.89
2024-03-12T00:56:41.934Z,87.12
2024-03-12T01:02:59.695Z,87.15
2024-03-12T01:08:48.106Z,87.25
2024-03-12T01:14:39.266Z,88.06
2024-03-12T01:20:46.065Z,87.78
2024-03-12T01:26:25.993Z,88.04
2024-03-12T01:32:52.116Z,88.45
2024-03-12T01:39:05.222Z,88.49
2024-03-12T01:44:59.231Z,87.40
2024-03-12T01:51:05.574Z,87.87
2024-03-12T01:57:30.086Z,88.22
2024-03-12T02:03:55.260Z,88.06
2024-03-12T02:10:21.066Z,87.98
2024-03-12T02:15:59.649Z,88.11
2024-03-12T02:22:14.008Z,88.52
2024-03-12T02:27:52.745Z,88.26
2024-03-12T02:34:15.172Z,88.61
2024-03-12T02:40:17.258Z,88.45
2024-03-12T02:46:22.410Z,89.10
2024-03-12T02:52:39.590Z,88.96
2024-03-12T02:58:18.788Z,88.85
2024-03-12T03:04:16.192Z,88.80
2024-03-12T03:10:33.879Z,89.01
2024-03-12T03:16:39.735Z,89.90
2024-03-12T03:22:49.741Z,89.96
2024-03-12T03:28:57.935Z,89.73
2024-03-12T03:35:23.692Z,90.23
2024-03-12T03:41:48.713Z,90.55
2024-03-12T03:47:39.095Z,90.44
2024-03-12T03:53:45.044Z,90.50
2024-03-12T03:59:32.523Z,90.01
2024-03-12T04:05:16.146Z,90.35
2024-03-12T04:10:49.774Z,90.58
2024-03-12T04:16:58.809Z,90.72
2024-03-12T04:22:23.189Z,91.29
2024-03-12T04:27:38.326Z,91.36
2024-03-12T04:33:54.175Z,91.68
2024-03-12T04:39:44.168Z,91.50
2024-03-12T04:46:09.335Z,91.40
2024-03-12T04:52:35.235Z,91.20
2024-03-12T04:58:41.466Z,91.83
2024-03-12T05:04:46.842Z,92.03
2024-03-12T05:10:52.421Z,91.96
2024-03-12T05:17:18.733Z,91.99
2024-03-12T05:23:16.097Z,92.16
2024-03-12T05:29:34.504Z,91.78
2024-03-12T05:35:00.438Z,92.16
2024-03-12T05:40:54.104Z,91.94
2024-03-12T05:47:11.440Z,91.90
2024-03-12T05:53:06.412Z,92.12
2024-03-12T05:59:31.629Z,92.19
2024-03-12T06:05:29.904Z,92.04
2024-03-12T06:11:32.833Z,92.27
2024-03-12T06:17:58.642Z,92.42
2024-03-12T06:23:27.276Z,92.33
2024-03-12T06:29:53.044Z,92.51
2024-03-12T06:35:38.722Z,92.55
2024-03-12T06:40:49.807Z,92.55
2024-03-12T06:45:57.730Z,92.54
2024-03-12T06:52:11.496Z,92.61
2024-03-12T06:58:01.067Z,92.49
2024-03-12T07:03:30.596Z,92.63
2024-03-12T07:09:17.317Z,92.22
2024-03-12T07:15:04.616Z,92.16
2024-03-12T07:21:22.164Z,91.99
2024-03-12T07:27:32.998Z,92.30
2024-03-12T07:33:36.451Z,92.07
2024-03-12T07:40:02.914Z,92.31
2024-03-12T07:46:28.493Z,92.42
2024-03-12T07:52:17.971Z,92.40
2024-03-12T07:58:04.379Z,92.29
2024-03-12T08:04:13.166Z,92.21
2024-03-12T08:09:43.742Z,91.68
2024-03-12T08:15:08.144Z,92.02
2024-03-12T08:20:22.800Z,92.02
2024-03-12T08:26:36.820Z,92.01
2024-03-12T08:33:02.559Z,91.74
2024-03-12T08:39:28.767Z,91.38
2024-03-12T08:45:00.188Z,91.61
2024-03-12T08:50:17.281Z,91.65
2024-03-12T08:55:30.999Z,91.47
2024-03-12T09:00:48.564Z,91.31
2024-03-12T09:06:19.463Z,91.11
2024-03-12T09:12:08.534Z,91.45
2024-03-12T09:17:57.462Z,91.29
2024-03-12T09:24:02.891Z,91.13
2024-03-12T09:29:19.316Z,91.23
2024-03-12T09:34:26.927Z,91.08
2024-03-12T09:39:44.665Z,91.07
2024-03-12T09:44:59.217Z,91.07
2024-03-12T09:50:59.106Z,91.03
2024-03-12T09:56:39.953Z,90.93
2024-03-12T10:02:37.338Z,90.80
2024-03-12T10:09:08.757Z,90.78
2024-03-12T10:15:35.131Z,90.49
2024-03-12T10:21:59.700Z,90.53
2024-03-12T10:27:44.313Z,90.63
2024-03-12T10:34:11.104Z,90.28
2024-03-12T10:40:37.052Z,90.32
2024-03-12T10:45:57.671Z,90.10
2024-03-12T10:51:14.883Z,89.79
2024-03-12T10:56:34.086Z,90.14
2024-03-12T11:01:54.377Z,90.03
2024-03-12T11:07:04.626Z,89.98
2024-03-12T11:12:26.316Z,89.93
2024-03-12T11:18:13.970Z,90.27
2024-03-12T11:24:20.887Z,90.00
2024-03-12T11:30:52.981Z,89.21
2024-03-12T11:36:51.136Z,88.72
2024-03-12T11:42:44.367Z,88.28
2024-03-12T11:48:23.461Z,88.31
2024-03-12T11:54:32.526Z,88.26
2024-03-12T12:00:57.677Z,88.01
2024-03-12T12:07:18.242Z,87.90
2024-03-12T12:13:33.664Z,87.61
2024-03-12T12:19:45.475Z,87.91
2024-03-12T12:26:11.609Z,87.96
2024-03-12T12:31:59.652Z,88.02
2024-03-12T12:37:22.111Z,87.85
2024-03-12T12:42:51.434Z,87.28
2024-03-12T12:48:25.922Z,87.12
2024-03-12T12:54:43.881Z,86.98
2024-03-12T13:00:51.509Z,86.95
2024-03-12T13:07:05.773Z,86.96
2024-03-12T13:13:32.277Z,86.77
2024-03-12T13:19:03.143Z,86.81
2024-03-12T13:24:33.811Z,85.74
2024-03-12T13:30:30.492Z,85.19
2024-03-12T13:35:45.090Z,85.33
2024-03-12T13:41:10.725Z,85.31
2024-03-12T13:46:31.008Z,84.93
2024-03-12T13:52:56.764Z,84.32
2024-03-12T13:58:27.735Z,83.11
2024-03-12T14:03:56.636Z,82.88
2024-03-12T14:09:39.331Z,82.17
2024-03-12T14:15:56.772Z,82.26
2024-03-12T14:22:02.208Z,82.47
2024-03-12T14:27:37.907Z,82.55
2024-03-12T14:33:45.888Z,82.13
2024-03-12T14:39:17.676Z,82.04
2024-03-12T14:44:48.735Z,82.03
2024-03-12T14:50:21.045Z,82.29
2024-03-12T14:55:48.209Z,82.06
2024-03-12T15:01:30.656Z,82.13
2024-03-12T15:07:04.887Z,82.28
2024-03-12T15:12:12.434Z,82.01
2024-03-12T15:17:42.078Z,82.03
2024-03-12T15:23:07.255Z,81.95
2024-03-12T15:28:34.340Z,81.94
2024-03-12T15:33:45.513Z,82.09
2024-03-12T15:39:52.467Z,82.35
2024-03-12T15:45:22.470Z,82.48
2024-03-12T15:50:46.031Z,82.54
2024-03-12T15:56:34.473Z,82.58
2024-03-12T16:01:57.683Z,82.62
2024-03-12T16:08:07.438Z,82.63
2024-03-12T16:14:21.798Z,82.74
2024-03-12T16:20:15.417Z,82.84
2024-03-12T16:26:35.176Z,83.02
2024-03-12T16:32:44.786Z,83.14
2024-03-12T16:38:25.771Z,83.29
2024-03-12T16:43:59.774Z,83.48
2024-03-12T16:50:07.625Z,83.68
2024-03-12T16:55:52.430Z,83.87
2024-03-12T17:01:40.038Z,84.29
2024-03-12T17:07:34.027Z,84.46
2024-03-12T17:13:32.756Z,85.23
2024-03-12T17:18:59.690Z,85.47
2024-03-12T17:24:45.071Z,85.95
2024-03-12T17:30:18.407Z,86.24
2024-03-12T17:35:54.706Z,86.13
2024-03-12T17:41:28.845Z,86.09
2024-03-12T17:47:16.389Z,86.28
2024-03-12T17:53:16.927Z,86.38
2024-03-12T17:59:02.254Z,86.40
2024-03-12T18:05:17.860Z,86.40
2024-03-12T18:11:17.181Z,86.33
2024-03-12T18:16:45.889Z,86.34
2024-03-12T18:22:24.756Z,86.57
2024-03-12T18:27:57.450Z,86.69
2024-03-12T18:34:05.606Z,86.62
2024-03-12T18:40:19.005Z,86.66
2024-03-12T18:45:54.214Z,86.69
2024-03-12T18:51:52.993Z,86.98
2024-03-12T18:57:52.390Z,87.12
2024-03-12T19:03:23.454Z,87.18
2024-03-12T19:08:41.596Z,87.58
2024-03-12T19:14:38.123Z,87.79
2024-03-12T19:20:44.857Z,88.03
2024-03-12T19:27:17.182Z,88.10
2024-03-12T19:32:47.628Z,88.28
2024-03-12T19:38:16.984Z,89.00
2024-03-12T19:43:51.602Z,89.69
2024-03-12T19:49:21.504Z,90.24
2024-03-12T19:54:59.163Z,90.07
2024-03-12T20:00:54.414Z,89.80
2024-03-12T20:06:06.920Z,90.20
2024-03-12T20:11:34.456Z,90.20
2024-03-12T20:17:01.837Z,90.45
2024-03-12T20:22:12.469Z,90.80
2024-03-12T20:27:22.702Z,91.14
2024-03-12T20:33:00.417Z,90.77
2024-03-12T20:38:31.114Z,90.60
2024-03-12T20:43:37.403Z,90.59
2024-03-12T20:49:04.612Z,90.69
2024-03-12T20:54:10.429Z,90.79
2024-03-12T21:00:08.595Z,90.99
2024-03-12T21:05:24.431Z,91.19
2024-03-12T21:10:45.488Z,91.61
2024-03-12T21:16:32.165Z,92.19
2024-03-12T21:21:37.104Z,92.44
2024-03-12T21:27:46.217Z,92.26
2024-03-12T21:33:48.615Z,92.10
2024-03-12T21:39:55.906Z,92.38
2024-03-12T21:45:35.551Z,92.31
2024-03-12T21:51:16.902Z,92.05
2024-03-12T21:56:42.328Z,92.37
2024-03-12T22:02:52.585Z,92.72
2024-03-12T22:09:08.357Z,92.97
2024-03-12T22:14:56.813Z,93.03
2024-03-12T22:21:05.288Z,93.11
2024-03-12T22:27:30.014Z,93.26
2024-03-12T22:32:45.522Z,93.24
2024-03-12T22:37:57.151Z,93.19
2024-03-12T22:43:04.590Z,93.12
2024-03-12T22:48:29.806Z,93.07
2024-03-12T22:53:46.790Z,92.96
2024-03-12T22:59:14.768Z,93.02
2024-03-12T23:04:55.689Z,93.00
2024-03-12T23:11:03.956Z,92.93
2024-03-12T23:17:29.485Z,92.83
2024-03-12T23:23:12.117Z,92.73
2024-03-12T23:28:45.328Z,92.62
2024-03-12T23:34:36.188Z,92.45
2024-03-12T23:40:37.756Z,92.35
2024-03-12T23:46:54.951Z,92.25
2024-03-12T23:52:22.212Z,92.15
2024-03-12T23:57:41.422Z,91.97
